createdAt,value
2018-02-06T00:01:51.909Z,77.41
2018-02-06T00:04:19.594Z,77.42
2018-02-06T00:06:47.278Z,77.15
2018-02-06T00:09:14.866Z,76.87
2018-02-06T00:11:42.643Z,76.92
2018-02-06T00:14:10.206Z,77.33
2018-02-06T00:16:37.743Z,77.41
2018-02-06T00:19:05.468Z,77.24
2018-02-06T00:21:33.117Z,77.81
2018-02-06T00:24:00.740Z,77.96
2018-02-06T00:26:28.287Z,78.03
2018-02-06T00:28:55.843Z,78.08
2018-02-06T00:31:23.750Z,78.10
2018-02-06T00:33:51.587Z,78.13
2018-02-06T00:36:19.178Z,78.29
2018-02-06T00:38:46.736Z,78.14
2018-02-06T00:41:14.554Z,78.55
2018-02-06T00:43:42.110Z,78.23
2018-02-06T00:46:09.685Z,78.08
2018-02-06T00:48:37.257Z,78.03
2018-02-06T00:51:04.819Z,78.22
2018-02-06T00:53:32.393Z,78.17
2018-02-06T00:55:59.933Z,78.59
2018-02-06T00:58:27.569Z,78.41
2018-02-06T01:00:55.134Z,78.34
2018-02-06T01:03:22.693Z,78.42
2018-02-06T01:05:50.250Z,78.24
2018-02-06T01:08:17.934Z,78.42
2018-02-06T01:10:45.770Z,78.69
2018-02-06T01:13:13.338Z,78.49
2018-02-06T01:15:41.085Z,78.62
2018-02-06T01:18:08.823Z,78.90
2018-02-06T01:20:36.657Z,79.22
2018-02-06T01:23:04.461Z,79.44
2018-02-06T01:25:32.035Z,79.96
2018-02-06T01:27:59.616Z,80.12
2018-02-06T01:30:27.191Z,79.92
2018-02-06T01:32:55.035Z,80.04
2018-02-06T01:35:22.849Z,79.87
2018-02-06T01:37:50.671Z,80.02
2018-02-06T01:40:18.234Z,79.69
2018-02-06T01:42:45.964Z,80.00
2018-02-06T01:45:13.576Z,80.93
2018-02-06T01:47:41.106Z,80.16
2018-02-06T01:50:08.669Z,80.42
2018-02-06T01:52:36.341Z,81.28
2018-02-06T01:55:03.953Z,81.38
2018-02-06T01:57:31.574Z,81.85
2018-02-06T01:59:59.125Z,81.55
2018-02-06T02:02:26.693Z,81.65
2018-02-06T02:04:54.278Z,81.96
2018-02-06T02:07:22.083Z,81.71
2018-02-06T02:09:49.699Z,81.85
2018-02-06T02:12:17.257Z,82.59
2018-02-06T02:14:45.037Z,82.22
2018-02-06T02:17:12.585Z,82.29
2018-02-06T02:19:40.177Z,82.21
2018-02-06T02:22:07.991Z,82.09
2018-02-06T02:24:35.614Z,82.05
2018-02-06T02:27:03.187Z,82.10
2018-02-06T02:29:30.768Z,82.26
2018-02-06T02:31:58.351Z,82.23
2018-02-06T02:34:26.082Z,82.37
2018-02-06T02:36:53.898Z,82.40
2018-02-06T02:39:21.439Z,82.61
2018-02-06T04:39:52.433Z,83.07
2018-02-06T04:42:20.035Z,82.56
2018-02-06T04:44:47.782Z,82.52
2018-02-06T04:47:15.413Z,82.29
2018-02-06T04:49:43.159Z,82.13
2018-02-06T04:52:10.698Z,82.13
2018-02-06T04:54:38.491Z,82.11
2018-02-06T04:57:06.067Z,81.94
2018-02-06T04:59:33.657Z,82.67
2018-02-06T05:02:01.209Z,82.10
2018-02-06T05:04:29.062Z,81.73
2018-02-06T05:06:56.851Z,81.48
2018-02-06T05:09:24.402Z,81.29
2018-02-06T05:11:52.216Z,82.14
2018-02-06T05:14:19.817Z,81.31
2018-02-06T05:16:47.382Z,81.08
2018-02-06T05:19:14.971Z,80.99
2018-02-06T05:21:42.594Z,80.97
2018-02-06T05:24:10.154Z,81.05
2018-02-06T05:26:37.756Z,81.04
2018-02-06T05:29:05.306Z,81.33
2018-02-06T05:31:33.060Z,81.33
2018-02-06T05:34:00.639Z,81.36
2018-02-06T05:36:28.194Z,80.62
2018-02-06T05:38:56.014Z,80.88
2018-02-06T05:41:23.606Z,80.96
2018-02-06T05:43:51.157Z,80.98
2018-02-06T05:46:18.968Z,81.14
2018-02-06T05:48:46.525Z,81.17
2018-02-06T05:51:14.197Z,81.15
2018-02-06T05:53:41.808Z,81.23
2018-02-06T05:56:09.657Z,81.32
2018-02-06T05:58:37.213Z,81.42
2018-02-06T06:01:04.866Z,81.24
2018-02-06T06:03:32.597Z,81.15
2018-02-06T06:06:00.203Z,81.06
2018-02-06T06:08:27.766Z,80.49
2018-02-06T06:10:55.447Z,80.29
2018-02-06T06:13:23.058Z,80.35
2018-02-06T06:15:50.621Z,80.52
2018-02-06T06:18:18.401Z,80.31
2018-02-06T06:20:45.965Z,80.04
2018-02-06T06:23:13.514Z,79.75
2018-02-06T06:25:41.084Z,79.78
2018-02-06T06:28:08.872Z,79.28
2018-02-06T06:30:36.606Z,79.15
2018-02-06T06:33:04.165Z,79.51
2018-02-06T06:35:31.726Z,79.04
2018-02-06T06:37:59.545Z,78.70
2018-02-06T06:40:27.109Z,78.59
2018-02-06T06:42:54.690Z,78.64
2018-02-06T06:45:22.499Z,78.05
2018-02-06T06:47:50.181Z,77.58
2018-02-06T06:50:17.749Z,76.26
2018-02-06T06:52:45.344Z,75.55
2018-02-06T06:55:13.988Z,74.98
2018-02-06T06:57:41.792Z,74.80
2018-02-06T07:00:09.406Z,73.41
2018-02-06T07:02:36.940Z,69.40
2018-02-06T07:05:04.514Z,66.67
2018-02-06T07:07:32.263Z,65.93
2018-02-06T07:09:59.829Z,65.14
2018-02-06T07:12:27.447Z,64.66
2018-02-06T07:14:55.007Z,64.04
2018-02-06T07:17:22.834Z,62.97
2018-02-06T07:19:50.403Z,63.45
2018-02-06T07:22:17.981Z,63.68
2018-02-06T07:24:45.789Z,64.57
2018-02-06T07:27:13.612Z,64.37
2018-02-06T07:29:41.222Z,64.00
2018-02-06T07:32:08.786Z,64.28
2018-02-06T07:34:36.461Z,64.75
2018-02-06T07:37:04.179Z,63.48
2018-02-06T07:39:31.741Z,64.17
2018-02-06T07:41:59.427Z,64.27
2018-02-06T07:44:27.041Z,62.26
2018-02-06T07:46:54.851Z,62.15
2018-02-06T07:49:22.408Z,62.06
2018-02-06T07:51:50.072Z,61.47
2018-02-06T07:54:17.796Z,62.03
2018-02-06T07:56:45.360Z,61.47
2018-02-06T07:59:12.934Z,59.54
2018-02-06T08:01:40.488Z,58.33
2018-02-06T08:04:08.530Z,58.17
2018-02-06T08:06:36.311Z,56.55
2018-02-06T08:09:04.810Z,54.06
2018-02-06T08:11:32.773Z,50.85
2018-02-06T08:14:00.320Z,48.39
2018-02-06T08:16:27.881Z,47.05
2018-02-06T08:18:55.479Z,45.10
2018-02-06T08:21:23.104Z,41.06
2018-02-06T08:23:50.670Z,37.26
2018-02-06T08:26:18.227Z,35.93
2018-02-06T08:28:45.851Z,36.53
2018-02-06T08:31:13.498Z,35.64
2018-02-06T08:33:41.081Z,35.29
2018-02-06T08:36:08.682Z,34.99
2018-02-06T08:38:36.532Z,33.72
2018-02-06T08:41:04.309Z,33.12
2018-02-06T08:43:32.147Z,31.19
2018-02-06T08:45:59.741Z,31.09
2018-02-06T08:48:27.297Z,31.36
2018-02-06T08:50:55.126Z,31.73
2018-02-06T08:53:22.720Z,30.56
2018-02-06T08:55:50.460Z,29.67
2018-02-06T08:58:18.045Z,29.97
2018-02-06T09:00:45.795Z,30.54
2018-02-06T09:03:13.368Z,29.94
2018-02-06T09:05:41.477Z,29.69
2018-02-06T09:08:09.046Z,29.61
2018-02-06T09:10:36.672Z,30.69
2018-02-06T09:13:04.291Z,30.79
2018-02-06T09:15:31.876Z,29.25
2018-02-06T09:17:59.489Z,29.17
2018-02-06T09:20:27.133Z,29.51
2018-02-06T09:22:54.821Z,29.88
2018-02-06T09:25:22.393Z,29.51
2018-02-06T09:27:49.965Z,29.03
2018-02-06T09:30:17.711Z,29.32
2018-02-06T09:32:45.282Z,30.09
2018-02-06T09:35:12.852Z,29.07
2018-02-06T09:37:40.665Z,29.71
2018-02-06T09:40:08.237Z,31.70
2018-02-06T09:42:35.798Z,31.77
2018-02-06T09:45:03.620Z,31.78
2018-02-06T09:47:31.224Z,29.95
2018-02-06T09:49:58.812Z,29.93
2018-02-06T09:52:26.578Z,29.60
2018-02-06T09:54:54.238Z,30.59
2018-02-06T09:57:21.828Z,30.24
2018-02-06T09:59:49.418Z,30.23
2018-02-06T10:02:17.006Z,29.96
2018-02-06T10:04:44.653Z,30.36
2018-02-06T10:07:12.229Z,30.75
2018-02-06T10:09:40.004Z,30.78
2018-02-06T10:12:07.630Z,31.63
2018-02-06T10:14:35.228Z,29.91
2018-02-06T10:17:02.789Z,31.15
2018-02-06T10:19:30.497Z,31.29
2018-02-06T10:21:58.165Z,31.66
2018-02-06T10:24:25.748Z,32.26
2018-02-06T10:26:53.421Z,31.54
2018-02-06T10:29:21.133Z,32.29
2018-02-06T10:31:48.860Z,30.06
2018-02-06T10:34:16.432Z,31.29
2018-02-06T10:36:44.202Z,30.49
2018-02-06T10:39:11.761Z,30.72
2018-02-06T10:41:39.535Z,28.68
2018-02-06T10:44:07.251Z,28.48
2018-02-06T10:46:34.877Z,29.19
2018-02-06T10:49:02.445Z,29.12
2018-02-06T10:51:30.011Z,29.17
2018-02-06T10:53:57.582Z,29.00
2018-02-06T10:56:25.304Z,28.53
2018-02-06T10:58:52.891Z,28.34
2018-02-06T11:01:20.675Z,27.60
2018-02-06T11:03:48.494Z,28.51
2018-02-06T11:06:16.093Z,28.33
2018-02-06T11:08:43.813Z,29.22
2018-02-06T11:11:11.388Z,31.73
2018-02-06T11:13:38.942Z,31.64
2018-02-06T11:16:06.506Z,31.54
2018-02-06T11:18:34.304Z,30.61
2018-02-06T11:21:01.957Z,29.85
2018-02-06T11:23:29.531Z,31.21
2018-02-06T11:25:57.095Z,29.66
2018-02-06T11:28:24.682Z,29.92
2018-02-06T11:30:52.497Z,30.39
2018-02-06T11:33:20.113Z,29.98
2018-02-06T11:35:47.934Z,30.42
2018-02-06T11:38:15.615Z,29.50
2018-02-06T11:40:43.187Z,28.86
2018-02-06T11:43:10.894Z,29.00
2018-02-06T11:45:38.502Z,28.96
2018-02-06T11:48:06.233Z,28.42
2018-02-06T11:50:33.871Z,28.63
2018-02-06T11:53:01.638Z,27.22
2018-02-06T11:55:29.319Z,26.97
2018-02-06T11:57:57.592Z,28.68
2018-02-06T12:00:25.205Z,26.80
2018-02-06T12:02:52.770Z,27.64
2018-02-06T12:05:20.331Z,27.51
2018-02-06T12:07:48.114Z,25.04
2018-02-06T12:10:15.817Z,25.70
2018-02-06T12:12:43.542Z,27.40
2018-02-06T12:15:11.319Z,27.77
2018-02-06T12:17:38.928Z,26.57
2018-02-06T12:20:06.500Z,26.97
2018-02-06T12:22:34.069Z,28.44
2018-02-06T12:25:01.680Z,29.10
2018-02-06T12:27:29.237Z,27.40
2018-02-06T12:29:56.972Z,28.28
2018-02-06T12:32:24.552Z,27.08
2018-02-06T12:34:52.122Z,26.45
2018-02-06T12:37:19.841Z,29.38
2018-02-06T12:39:47.401Z,28.94
2018-02-06T12:42:15.216Z,27.56
2018-02-06T12:44:43.035Z,28.63
2018-02-06T12:47:10.751Z,29.01
2018-02-06T12:49:38.327Z,28.85
2018-02-06T12:52:05.975Z,28.87
2018-02-06T12:54:33.683Z,29.73
2018-02-06T12:57:01.242Z,29.71
2018-02-06T12:59:28.794Z,28.57
2018-02-06T13:01:56.361Z,28.64
2018-02-06T13:04:24.069Z,28.72
2018-02-06T13:06:51.626Z,27.94
2018-02-06T13:09:19.321Z,27.23
2018-02-06T13:11:47.132Z,27.21
2018-02-06T13:14:14.697Z,27.47
2018-02-06T13:16:42.278Z,27.52
2018-02-06T13:19:10.088Z,26.95
2018-02-06T13:21:37.760Z,27.48
2018-02-06T13:24:05.365Z,28.13
2018-02-06T13:26:32.886Z,26.89
2018-02-06T13:29:00.449Z,28.85
2018-02-06T13:31:28.022Z,28.25
2018-02-06T13:33:55.795Z,29.06
2018-02-06T13:36:23.512Z,29.59
2018-02-06T13:38:51.139Z,30.31
2018-02-06T13:41:18.697Z,29.46
2018-02-06T13:43:46.258Z,30.14
2018-02-06T13:46:13.974Z,29.50
2018-02-06T13:48:41.550Z,28.11
2018-02-06T13:51:09.421Z,28.50
2018-02-06T13:53:37.239Z,27.60
2018-02-06T13:56:04.805Z,27.45
2018-02-06T13:58:32.411Z,28.54
2018-02-06T14:00:59.976Z,29.22
2018-02-06T14:03:27.601Z,28.25
2018-02-06T14:05:55.168Z,29.22
2018-02-06T14:08:22.737Z,28.94
2018-02-06T14:10:50.352Z,30.15
2018-02-06T14:13:18.114Z,31.26
2018-02-06T14:15:45.810Z,31.40
2018-02-06T14:18:13.393Z,32.75
2018-02-06T14:20:41.036Z,32.06
2018-02-06T14:23:08.595Z,31.51
2018-02-06T14:25:36.156Z,32.14
2018-02-06T14:28:03.738Z,30.07
2018-02-06T14:30:31.506Z,30.01
2018-02-06T14:32:59.221Z,31.39
2018-02-06T14:35:27.015Z,31.04
2018-02-06T14:37:57.503Z,31.03
2018-02-06T14:40:25.187Z,32.11
2018-02-06T14:42:52.749Z,31.97
2018-02-06T14:45:20.345Z,31.70
2018-02-06T14:47:48.141Z,32.44
2018-02-06T14:50:15.717Z,32.10
2018-02-06T14:52:43.478Z,33.17
2018-02-06T14:55:11.296Z,32.91
2018-02-06T14:57:39.014Z,32.47
2018-02-06T15:00:06.596Z,33.35
2018-02-06T15:02:34.351Z,33.29
2018-02-06T15:05:01.916Z,33.74
2018-02-06T15:07:29.553Z,34.67
2018-02-06T15:09:57.271Z,35.82
2018-02-06T15:12:24.840Z,37.46
2018-02-06T15:14:52.422Z,39.03
2018-02-06T15:17:20.174Z,40.28
2018-02-06T15:19:47.767Z,41.31
2018-02-06T15:22:15.494Z,42.39
2018-02-06T15:24:43.213Z,43.30
2018-02-06T15:27:11.031Z,43.72
2018-02-06T15:29:38.597Z,44.49
2018-02-06T15:32:06.244Z,45.17
2018-02-06T15:34:33.804Z,45.93
2018-02-06T15:37:01.375Z,45.22
2018-02-06T15:39:29.120Z,45.54
2018-02-06T15:41:56.839Z,46.20
2018-02-06T15:44:24.409Z,46.62
2018-02-06T15:46:51.969Z,47.09
2018-02-06T15:49:19.582Z,48.07
2018-02-06T15:51:47.142Z,48.94
2018-02-06T15:54:14.710Z,48.42
2018-02-06T15:56:42.282Z,48.18
2018-02-06T15:59:09.881Z,48.41
2018-02-06T16:01:37.481Z,48.90
2018-02-06T16:04:05.097Z,48.17
2018-02-06T16:06:32.666Z,48.12
2018-02-06T16:09:00.315Z,49.13
2018-02-06T16:11:27.884Z,49.56
2018-02-06T16:13:55.443Z,49.98
2018-02-06T16:16:23.057Z,50.02
2018-02-06T16:18:50.617Z,50.34
2018-02-06T16:21:18.213Z,50.17
2018-02-06T16:23:45.814Z,50.65
2018-02-06T16:26:13.374Z,50.29
2018-02-06T16:28:41.190Z,50.69
2018-02-06T16:31:08.755Z,49.88
2018-02-06T16:33:36.517Z,50.60
2018-02-06T16:36:04.126Z,50.58
2018-02-06T16:38:31.685Z,50.46
2018-02-06T16:40:59.263Z,51.11
2018-02-06T16:43:26.829Z,50.81
2018-02-06T16:45:54.602Z,51.40
2018-02-06T16:48:22.236Z,51.49
2018-02-06T16:50:50.246Z,52.37
2018-02-06T16:53:17.899Z,52.37
2018-02-06T16:55:45.475Z,52.04
2018-02-06T16:58:13.291Z,52.27
2018-02-06T17:00:40.877Z,52.74
2018-02-06T17:03:08.509Z,53.00
2018-02-06T17:05:36.069Z,53.52
2018-02-06T17:08:03.762Z,53.11
2018-02-06T17:10:31.362Z,53.15
2018-02-06T17:12:59.006Z,53.39
2018-02-06T17:15:26.557Z,53.31
2018-02-06T17:17:54.337Z,53.66
2018-02-06T17:20:21.899Z,53.65
2018-02-06T17:22:49.449Z,54.09
2018-02-06T17:25:17.191Z,53.69
2018-02-06T17:27:44.752Z,53.65
2018-02-06T17:30:12.467Z,54.01
2018-02-06T17:32:40.031Z,53.94
2018-02-06T17:35:07.607Z,54.67
2018-02-06T17:37:35.198Z,54.69
2018-02-06T17:40:02.753Z,54.30
2018-02-06T17:42:30.322Z,54.63
2018-02-06T17:44:58.057Z,54.94
2018-02-06T17:47:25.670Z,55.44
2018-02-06T17:49:53.230Z,55.19
2018-02-06T17:52:20.785Z,55.33
2018-02-06T17:54:48.605Z,53.97
2018-02-06T17:57:16.194Z,54.02
2018-02-06T17:59:43.810Z,55.11
2018-02-06T18:02:11.558Z,55.15
2018-02-06T18:04:39.183Z,55.28
2018-02-06T18:07:06.786Z,54.80
2018-02-06T18:09:34.518Z,54.15
2018-02-06T18:12:02.134Z,54.23
2018-02-06T18:14:29.721Z,54.70
2018-02-06T18:16:57.361Z,54.32
2018-02-06T18:19:24.914Z,54.42
2018-02-06T18:21:52.524Z,54.50
2018-02-06T18:24:20.197Z,54.07
2018-02-06T18:26:47.929Z,54.09
2018-02-06T18:29:15.656Z,54.17
2018-02-06T18:31:43.260Z,54.25
2018-02-06T18:34:10.943Z,54.32
2018-02-06T18:36:38.513Z,54.43
2018-02-06T18:39:06.139Z,54.52
2018-02-06T18:41:33.946Z,54.72
2018-02-06T18:44:01.554Z,54.60
2018-02-06T18:46:29.262Z,55.32
2018-02-06T18:48:56.826Z,55.41
2018-02-06T18:51:24.510Z,54.21
2018-02-06T18:53:52.260Z,54.71
2018-02-06T18:56:19.890Z,53.97
2018-02-06T18:58:47.440Z,54.38
2018-02-06T19:01:14.999Z,54.13
2018-02-06T19:03:42.691Z,54.10
2018-02-06T19:06:10.417Z,55.00
2018-02-06T19:08:38.059Z,54.34
2018-02-06T19:11:05.862Z,54.30
2018-02-06T19:13:33.475Z,54.47
2018-02-06T19:16:01.174Z,54.77
2018-02-06T19:18:28.917Z,54.48
2018-02-06T19:20:56.503Z,54.37
2018-02-06T19:23:24.076Z,54.09
2018-02-06T19:25:51.652Z,54.02
2018-02-06T19:28:19.274Z,54.33
2018-02-06T19:30:47.120Z,54.25
2018-02-06T19:33:14.682Z,54.54
2018-02-06T19:35:42.249Z,54.69
2018-02-06T19:38:10.060Z,54.30
2018-02-06T19:40:37.780Z,54.45
2018-02-06T19:43:05.437Z,54.67
2018-02-06T19:45:33.106Z,54.60
2018-02-06T19:48:00.682Z,54.92
2018-02-06T19:50:28.520Z,54.55
2018-02-06T19:52:56.082Z,53.94
2018-02-06T19:55:23.666Z,54.35
2018-02-06T19:57:51.406Z,54.76
2018-02-06T20:00:19.242Z,53.94
2018-02-06T20:02:47.043Z,53.85
2018-02-06T20:05:14.602Z,53.86
2018-02-06T20:07:42.378Z,53.78
2018-02-06T20:10:09.953Z,54.76
2018-02-06T20:12:37.538Z,54.87
2018-02-06T20:15:05.089Z,54.50
2018-02-06T20:17:32.703Z,54.16
2018-02-06T20:20:00.262Z,54.04
2018-02-06T20:22:27.871Z,53.93
2018-02-06T20:24:55.438Z,53.88
2018-02-06T20:27:22.995Z,54.14
2018-02-06T20:29:50.548Z,54.19
2018-02-06T20:32:18.118Z,54.16
2018-02-06T20:34:45.975Z,54.21
2018-02-06T20:37:13.792Z,54.04
2018-02-06T20:39:41.360Z,54.23
2018-02-06T20:42:09.229Z,53.91
2018-02-06T20:44:36.825Z,54.14
2018-02-06T20:47:04.398Z,54.05
2018-02-06T20:49:31.953Z,53.32
2018-02-06T20:51:59.763Z,53.37
2018-02-06T20:54:27.315Z,53.46
2018-02-06T20:56:54.878Z,52.33
2018-02-06T20:59:22.610Z,53.12
2018-02-06T21:01:50.181Z,52.35
2018-02-06T21:04:18.091Z,52.12
2018-02-06T21:06:45.909Z,52.06
2018-02-06T21:09:13.468Z,52.08
2018-02-06T21:11:41.042Z,52.88
2018-02-06T21:14:08.763Z,52.55
2018-02-06T21:16:36.549Z,52.58
2018-02-06T21:19:04.265Z,52.89
2018-02-06T21:21:31.840Z,52.76
2018-02-06T21:23:59.635Z,52.32
2018-02-06T21:26:27.354Z,52.75
2018-02-06T21:28:55.002Z,52.93
2018-02-06T21:31:22.675Z,52.50
2018-02-06T21:33:50.295Z,53.15
2018-02-06T21:36:17.945Z,52.59
2018-02-06T21:38:45.537Z,52.38
2018-02-06T21:41:13.205Z,53.17
2018-02-06T21:43:40.829Z,53.02
2018-02-06T21:46:09.568Z,53.14
2018-02-06T21:48:37.238Z,52.58
2018-02-06T21:51:04.805Z,53.19
2018-02-06T21:53:32.516Z,52.08
2018-02-06T21:56:00.153Z,53.00
2018-02-06T21:58:27.891Z,52.74
2018-02-06T22:00:55.712Z,52.45
2018-02-06T22:03:23.529Z,52.45
2018-02-06T22:05:51.726Z,52.01
2018-02-06T22:08:19.302Z,52.09
2018-02-06T22:10:46.897Z,51.81
2018-02-06T22:13:14.702Z,51.80
2018-02-06T22:15:42.823Z,52.19
2018-02-06T22:18:10.754Z,51.60
2018-02-06T22:20:38.313Z,51.29
2018-02-06T22:23:05.874Z,52.45
2018-02-06T22:25:33.595Z,52.62
2018-02-06T22:28:01.417Z,51.61
2018-02-06T22:30:29.332Z,52.07
2018-02-06T22:32:57.154Z,51.91
2018-02-06T22:35:24.759Z,52.38
2018-02-06T22:37:52.325Z,52.10
2018-02-06T22:40:19.906Z,52.47
2018-02-06T22:42:47.722Z,52.33
2018-02-06T22:45:15.275Z,52.42
2018-02-06T22:47:43.060Z,52.44
2018-02-06T22:50:10.878Z,53.26
2018-02-06T22:52:38.466Z,52.72
2018-02-06T22:55:06.019Z,53.23
2018-02-06T22:57:33.609Z,53.29
2018-02-06T23:00:01.329Z,53.68
2018-02-06T23:02:29.050Z,53.86
2018-02-06T23:04:56.666Z,54.23
2018-02-06T23:07:24.294Z,54.28
2018-02-06T23:09:52.028Z,54.10
2018-02-06T23:12:19.840Z,54.63
2018-02-06T23:14:48.008Z,54.21
2018-02-06T23:17:15.780Z,54.75
2018-02-06T23:19:43.371Z,54.94
2018-02-06T23:22:11.114Z,54.27
2018-02-06T23:24:38.673Z,55.20
2018-02-06T23:27:06.432Z,54.67
2018-02-06T23:29:34.149Z,55.40
2018-02-06T23:32:02.050Z,55.38
2018-02-06T23:34:29.853Z,55.54
2018-02-06T23:36:57.629Z,55.67
2018-02-06T23:39:25.361Z,56.31
2018-02-06T23:41:52.934Z,56.54
2018-02-06T23:44:20.569Z,57.21
2018-02-06T23:46:48.764Z,57.18
2018-02-06T23:49:16.326Z,57.62
2018-02-06T23:51:44.351Z,57.53
2018-02-06T23:54:12.236Z,57.64
2018-02-06T23:56:39.951Z,57.85
2018-02-06T23:59:07.791Z,58.28
